Time;durP1;ratioP1;P1;durP2;ratioP2;P2;SDS_P1;SDS_P2;PMS_P1;PMS_P2;Temp;Humidity;BMP_temperature;BMP_pressure;BME280_temperature;BME280_humidity;BME280_pressure;Samples;Min_cycle;Max_cycle;Signal;HPM_P1;HPM_P2
2023/08/07 00:00:17;;;;;;;0.97;0.47;;;;;;;;;;20900055;28;20306;-73
2023/08/07 00:10:19;;;;;;;2.93;1.13;;;;;;;;;;20942030;28;20592;-72
2023/08/07 00:20:21;;;;;;;2.63;0.43;;;15.50;99.90;;;;;;20922647;28;20286;-72
2023/08/07 00:30:23;;;;;;;0.40;0.30;;;;;;;;;;20938161;28;20209;-73
2023/08/07 00:40:24;;;;;;;0.50;0.30;;;;;;;;;;20887575;28;20229;-72
2023/08/07 00:50:27;;;;;;;0.70;0.60;;;15.70;99.90;;;;;;20901754;28;20274;-72
2023/08/07 01:00:29;;;;;;;0.67;0.40;;;15.80;99.90;;;;;;20935814;28;20225;-72
2023/08/07 01:10:36;;;;;;;2.60;0.47;;;;;;;;;;20935047;28;20231;-72
2023/08/07 01:20:38;;;;;;;0.77;0.37;;;;;;;;;;20933194;28;20225;-72
2023/08/07 01:30:44;;;;;;;0.47;0.37;;;15.50;99.90;;;;;;20917312;28;20239;-72
2023/08/07 01:40:47;;;;;;;0.93;0.47;;;;;;;;;;20932984;22;20302;-69
2023/08/07 01:50:49;;;;;;;1.43;0.53;;;;;;;;;;20935888;28;20225;-69
2023/08/07 02:00:51;;;;;;;1.37;0.50;;;;;;;;;;20965959;28;20266;-69
2023/08/07 02:10:52;;;;;;;0.80;0.57;;;;;;;;;;20912059;28;20293;-69
2023/08/07 02:20:55;;;;;;;1.40;0.47;;;;;;;;;;20942688;28;20290;-69
2023/08/07 02:30:57;;;;;;;1.53;0.50;;;;;;;;;;20934125;28;20209;-69
2023/08/07 02:40:59;;;;;;;0.57;0.47;;;;;;;;;;20955284;28;20236;-69
2023/08/07 02:51:01;;;;;;;1.23;0.60;;;;;;;;;;20947775;28;20566;-69
2023/08/07 03:01:06;;;;;;;1.10;0.40;;;;;;;;;;20946809;28;20229;-70
2023/08/07 03:11:08;;;;;;;1.87;0.70;;;;;;;;;;20907766;28;20217;-69
2023/08/07 03:21:10;;;;;;;1.10;0.50;;;;;;;;;;20930978;28;20290;-69
2023/08/07 03:31:12;;;;;;;1.50;0.80;;;15.40;99.90;;;;;;20914830;28;20675;-68
2023/08/07 03:41:14;;;;;;;1.77;0.60;;;;;;;;;;20933722;28;20224;-69
2023/08/07 03:51:17;;;;;;;0.70;0.50;;;;;;;;;;20942484;28;20221;-69
2023/08/07 04:01:23;;;;;;;0.93;0.50;;;;;;;;;;20943684;28;20310;-69
2023/08/07 04:11:26;;;;;;;1.47;0.47;;;;;;;;;;20916073;28;20292;-69
2023/08/07 04:21:28;;;;;;;0.97;0.43;;;;;;;;;;20910322;28;20850;-69
2023/08/07 04:31:33;;;;;;;1.43;0.40;;;15.30;99.90;;;;;;20918870;28;20225;-69
2023/08/07 04:41:35;;;;;;;0.90;0.60;;;;;;;;;;20921260;28;20493;-69
2023/08/07 04:51:36;;;;;;;0.97;0.40;;;;;;;;;;20927370;28;20209;-69
2023/08/07 05:01:38;;;;;;;1.27;0.43;;;;;;;;;;20868380;28;20279;-69
2023/08/07 05:11:40;;;;;;;1.03;0.53;;;;;;;;;;20871800;28;20222;-69
2023/08/07 05:21:42;;;;;;;1.30;0.40;;;;;;;;;;20900997;28;20232;-69
2023/08/07 05:31:44;;;;;;;1.03;0.43;;;;;;;;;;20952855;28;20257;-70
2023/08/07 05:41:47;;;;;;;2.97;0.63;;;;;;;;;;20828052;28;20328;-69
2023/08/07 05:51:49;;;;;;;0.60;0.47;;;;;;;;;;20852736;28;20263;-68
2023/08/07 06:01:51;;;;;;;0.97;0.40;;;;;;;;;;20924683;28;20603;-68
2023/08/07 06:11:52;;;;;;;1.10;0.53;;;;;;;;;;20916231;28;20642;-69
2023/08/07 06:21:54;;;;;;;5.63;0.60;;;;;;;;;;20894744;28;20765;-69
2023/08/07 06:31:56;;;;;;;0.67;0.40;;;;;;;;;;20907985;28;20629;-68
2023/08/07 06:42:00;;;;;;;1.17;0.50;;;;;;;;;;20861613;28;20260;-68
2023/08/07 06:52:06;;;;;;;1.30;0.87;;;;;;;;;;20883697;28;20299;-68
2023/08/07 07:02:08;;;;;;;1.10;0.50;;;;;;;;;;20885204;28;20225;-68
2023/08/07 07:12:10;;;;;;;1.80;0.77;;;;;;;;;;20893512;28;20221;-69
2023/08/07 07:22:12;;;;;;;1.10;0.40;;;;;;;;;;20923586;28;20719;-69
2023/08/07 07:32:14;;;;;;;2.40;0.60;;;15.00;99.90;;;;;;20916482;28;20217;-69
2023/08/07 07:42:17;;;;;;;0.77;0.53;;;;;;;;;;20886661;22;20234;-84
2023/08/07 07:52:19;;;;;;;0.60;0.40;;;;;;;;;;20870442;28;20291;-84
2023/08/07 08:02:24;;;;;;;1.57;0.53;;;;;;;;;;20903850;28;20587;-86
2023/08/07 08:12:25;;;;;;;2.43;0.60;;;;;;;;;;20885149;28;20233;-83
2023/08/07 08:22:27;;;;;;;0.60;0.50;;;;;;;;;;20915704;28;20240;-83
2023/08/07 08:32:30;;;;;;;0.93;0.40;;;;;;;;;;20907164;28;20234;-84
2023/08/07 08:42:31;;;;;;;1.87;0.70;;;;;;;;;;20903782;28;20229;-85
2023/08/07 08:52:38;;;;;;;1.10;0.40;;;;;;;;;;20932781;28;20237;-86
2023/08/07 09:02:50;;;;;;;0.77;0.60;;;;;;;;;;20886126;28;20226;-89
2023/08/07 09:13:24;;;;;;;2.50;0.70;;;;;;;;;;20862315;28;20251;-86
2023/08/07 09:23:25;;;;;;;0.63;0.40;;;;;;;;;;20905849;22;20230;-71
2023/08/07 09:33:28;;;;;;;0.80;0.60;;;16.60;99.90;;;;;;20852965;28;20270;-71
2023/08/07 09:43:37;;;;;;;0.60;0.40;;;16.00;99.90;;;;;;20885608;28;20279;-71
2023/08/07 09:53:41;;;;;;;2.10;0.80;;;;;;;;;;20920862;28;20282;-71
2023/08/07 10:03:43;;;;;;;0.90;0.60;;;;;;;;;;20885250;28;20218;-72
2023/08/07 10:13:45;;;;;;;0.60;0.50;;;;;;;;;;20863118;28;20225;-72
2023/08/07 10:23:49;;;;;;;2.87;1.87;;;;;;;;;;20898164;28;20648;-71
2023/08/07 10:33:51;;;;;;;1.57;0.47;;;;;;;;;;20894459;28;20283;-72
2023/08/07 10:43:53;;;;;;;1.17;0.60;;;;;;;;;;20930962;28;20621;-72
2023/08/07 10:53:56;;;;;;;0.50;0.40;;;;;;;;;;20924756;28;20218;-71
2023/08/07 11:04:05;;;;;;;1.80;0.50;;;16.60;99.90;;;;;;20908854;28;20221;-71
2023/08/07 11:14:07;;;;;;;1.20;0.53;;;16.40;99.90;;;;;;20898108;28;20275;-71
2023/08/07 11:24:13;;;;;;;0.30;0.30;;;;;;;;;;20926022;28;20604;-71
2023/08/07 11:34:15;;;;;;;0.80;0.53;;;;;;;;;;20933279;28;20606;-71
2023/08/07 11:44:17;;;;;;;0.40;0.40;;;;;;;;;;20930228;28;20225;-70
2023/08/07 11:54:19;;;;;;;1.20;0.47;;;;;;;;;;20910461;28;20258;-71
2023/08/07 12:04:21;;;;;;;1.70;0.63;;;;;;;;;;20917824;28;20233;-71
2023/08/07 12:14:23;;;;;;;0.80;0.40;;;;;;;;;;20903710;28;20237;-70
2023/08/07 12:24:25;;;;;;;0.50;0.40;;;;;;;;;;20840095;28;20295;-71
2023/08/07 12:34:27;;;;;;;0.30;0.30;;;;;;;;;;20936944;28;20217;-71
2023/08/07 12:44:29;;;;;;;0.30;0.30;;;;;;;;;;20926595;28;20225;-71
2023/08/07 12:54:31;;;;;;;0.97;0.40;;;;;;;;;;20881422;28;20224;-70
2023/08/07 13:04:33;;;;;;;1.30;0.50;;;;;;;;;;20887363;28;20217;-69
2023/08/07 13:14:35;;;;;;;1.23;0.50;;;;;;;;;;20842971;28;20287;-69
2023/08/07 13:24:37;;;;;;;0.57;0.40;;;;;;;;;;20845187;28;20757;-71
2023/08/07 13:34:39;;;;;;;1.10;0.50;;;;;;;;;;20869629;28;20726;-71
2023/08/07 13:44:41;;;;;;;2.80;0.57;;;;;;;;;;20901922;28;20285;-72
2023/08/07 13:54:43;;;;;;;1.40;0.70;;;;;;;;;;20910109;22;20221;-73
2023/08/07 14:04:45;;;;;;;0.67;0.40;;;;;;;;;;20894962;28;20222;-72
2023/08/07 14:14:46;;;;;;;0.77;0.50;;;;;;;;;;20952885;28;20229;-72
2023/08/07 14:24:48;;;;;;;0.97;0.40;;;;;;;;;;20982904;28;20593;-70
2023/08/07 14:34:50;;;;;;;3.27;0.50;;;;;;;;;;20998209;28;20224;-72
2023/08/07 14:44:52;;;;;;;0.87;0.30;;;;;;;;;;20972935;28;20249;-71
2023/08/07 14:54:56;;;;;;;0.67;0.40;;;;;;;;;;20999197;28;20264;-71
2023/08/07 15:04:57;;;;;;;1.77;0.53;;;;;;;;;;20997329;28;20218;-71
2023/08/07 15:14:59;;;;;;;0.37;0.33;;;;;;;;;;20998212;28;20224;-71
2023/08/07 15:25:01;;;;;;;0.67;0.40;;;;;;;;;;20996182;28;20602;-71
2023/08/07 15:35:02;;;;;;;0.50;0.40;;;;;;;;;;20996537;28;20239;-71
2023/08/07 15:45:05;;;;;;;1.90;0.70;;;;;;;;;;20986675;28;20283;-71
2023/08/07 15:55:06;;;;;;;0.77;0.50;;;;;;;;;;20960765;28;20370;-71
2023/08/07 16:05:09;;;;;;;1.37;0.50;;;;;;;;;;20992143;28;20228;-70
2023/08/07 16:15:10;;;;;;;0.70;0.40;;;;;;;;;;20975653;28;20221;-72
2023/08/07 16:25:12;;;;;;;0.40;0.30;;;;;;;;;;20989878;28;20232;-71
2023/08/07 16:35:16;;;;;;;0.87;0.40;;;;;;;;;;20991091;28;20297;-71
2023/08/07 16:45:19;;;;;;;0.93;0.50;;;;;;;;;;20980949;28;20571;-72
2023/08/07 16:55:21;;;;;;;0.63;0.50;;;;;;;;;;20989226;28;20246;-72
2023/08/07 17:05:23;;;;;;;0.37;0.37;;;20.60;99.90;;;;;;20988533;28;20274;-71
2023/08/07 17:15:25;;;;;;;0.50;0.43;;;;;;;;;;20988540;28;20293;-71
2023/08/07 17:25:26;;;;;;;0.50;0.30;;;;;;;;;;20987196;28;20252;-72
2023/08/07 17:35:29;;;;;;;3.23;0.40;;;;;;;;;;20986558;28;20243;-73
2023/08/07 17:45:31;;;;;;;0.30;0.30;;;;;;;;;;20976766;28;20212;-72
2023/08/07 17:55:33;;;;;;;0.67;0.50;;;;;;;;;;20986050;28;20286;-70
2023/08/07 18:05:35;;;;;;;0.60;0.30;;;;;;;;;;20967210;28;20647;-70
2023/08/07 18:15:37;;;;;;;1.23;0.40;;;;;;;;;;20985211;28;20236;-71
2023/08/07 18:25:38;;;;;;;0.40;0.33;;;;;;;;;;20983720;28;20672;-70
2023/08/07 18:35:40;;;;;;;0.40;0.30;;;;;;;;;;20983411;28;20231;-71
2023/08/07 18:45:42;;;;;;;2.87;0.97;;;;;;;;;;20973595;28;20683;-69
2023/08/07 18:55:43;;;;;;;1.07;0.40;;;;;;;;;;20982360;28;20225;-70
2023/08/07 19:05:45;;;;;;;1.00;0.60;;;;;;;;;;20981346;28;20217;-70
2023/08/07 19:15:47;;;;;;;0.40;0.40;;;;;;;;;;20968551;28;20232;-70
2023/08/07 19:25:48;;;;;;;1.20;0.50;;;;;;;;;;20996071;28;20242;-70
2023/08/07 19:35:50;;;;;;;3.10;0.50;;;;;;;;;;20995686;28;20690;-71
2023/08/07 19:45:52;;;;;;;1.80;0.63;;;;;;;;;;20985235;28;20696;-71
2023/08/07 19:55:54;;;;;;;0.80;0.50;;;;;;;;;;21018883;22;20282;-75
2023/08/07 20:05:57;;;;;;;1.60;0.40;;;;;;;;;;20839344;28;20219;-75
2023/08/07 20:16:00;;;;;;;0.30;0.30;;;;;;;;;;20862780;28;20708;-75
2023/08/07 20:26:02;;;;;;;0.90;0.50;;;;;;;;;;20890759;28;20268;-75
2023/08/07 20:36:07;;;;;;;1.00;0.63;;;;;;;;;;20890464;28;20294;-75
2023/08/07 20:46:09;;;;;;;0.40;0.40;;;;;;;;;;20823691;28;20288;-75
2023/08/07 20:56:12;;;;;;;0.43;0.33;;;;;;;;;;20872335;28;20230;-75
2023/08/07 21:06:13;;;;;;;0.57;0.50;;;;;;;;;;20844739;28;20213;-75
2023/08/07 21:16:15;;;;;;;1.40;0.60;;;;;;;;;;20857985;28;20252;-76
2023/08/07 21:26:18;;;;;;;1.37;0.47;;;;;;;;;;20886272;28;20214;-75
2023/08/07 21:36:20;;;;;;;0.47;0.40;;;;;;;;;;20842634;28;20777;-75
2023/08/07 21:46:22;;;;;;;0.33;0.30;;;;;;;;;;20849372;28;20300;-76
2023/08/07 21:56:24;;;;;;;0.93;0.40;;;;;;;;;;20884147;28;20291;-75
2023/08/07 22:06:26;;;;;;;0.70;0.47;;;;;;;;;;20841180;28;20709;-75
2023/08/07 22:16:28;;;;;;;0.57;0.50;;;;;;;;;;20883492;28;20283;-75
2023/08/07 22:26:30;;;;;;;0.40;0.40;;;;;;;;;;20850153;28;20218;-76
2023/08/07 22:36:32;;;;;;;0.50;0.30;;;;;;;;;;20847708;28;20280;-76
2023/08/07 22:46:34;;;;;;;0.93;0.50;;;;;;;;;;20841540;28;20750;-76
2023/08/07 22:56:35;;;;;;;0.50;0.30;;;;;;;;;;20854009;28;20289;-75
2023/08/07 23:06:37;;;;;;;0.57;0.40;;;;;;;;;;20851398;28;20584;-75
2023/08/07 23:16:39;;;;;;;0.43;0.30;;;;;;;;;;20880515;28;20501;-76
2023/08/07 23:26:41;;;;;;;0.67;0.40;;;;;;;;;;20862866;28;20267;-75
2023/08/07 23:36:43;;;;;;;0.33;0.30;;;;;;;;;;20860452;28;20287;-76
2023/08/07 23:46:44;;;;;;;0.50;0.40;;;;;;;;;;20828246;28;20198;-76
2023/08/07 23:56:47;;;;;;;1.33;0.30;;;;;;;;;;20909571;28;20251;-76
